Time;durP1;ratioP1;P1;durP2;ratioP2;P2;SDS_P1;SDS_P2;PMS_P1;PMS_P2;Temp;Humidity;BMP_temperature;BMP_pressure;BME280_temperature;BME280_humidity;BME280_pressure;Samples;Min_cycle;Max_cycle;Signal;HPM_P1;HPM_P2
2023/06/06 00:00:30;;;;;;;;;;;14.10;99.90;;;;;;5012504;28;20512;-84
2023/06/06 00:02:56;;;;;;;;;;;14.10;99.90;;;;;;5012576;28;20045;-84
2023/06/06 00:05:25;;;;;;;;;;;14.10;99.90;;;;;;4997345;28;20033;-84
2023/06/06 00:07:51;;;;;;;;;;;14.00;99.90;;;;;;5016444;28;20406;-84
2023/06/06 00:10:17;;;;;;;;;;;14.00;99.90;;;;;;5017421;28;20038;-84
2023/06/06 00:12:52;;;;;;;;;;;14.00;99.90;;;;;;5016504;28;20476;-84
2023/06/06 00:15:19;;;;;;;;;;;14.00;99.90;;;;;;5016307;28;20449;-85
2023/06/06 00:17:45;;;;;;;;;;;13.90;99.90;;;;;;5014435;28;20494;-84
2023/06/06 00:20:11;;;;;;;;;;;13.90;99.90;;;;;;4996451;28;20071;-84
2023/06/06 00:22:37;;;;;;;;;;;13.90;99.90;;;;;;5026873;28;20030;-84
2023/06/06 00:25:04;;;;;;;;;;;13.90;99.90;;;;;;4999026;28;20034;-84
2023/06/06 00:27:29;;;;;;;;;;;13.80;99.90;;;;;;5033207;28;20084;-84
2023/06/06 00:29:55;;;;;;;;;;;13.80;99.90;;;;;;5017954;28;20035;-85
2023/06/06 00:32:20;;;;;;;;;;;13.80;99.90;;;;;;4996281;28;20442;-85
2023/06/06 00:34:46;;;;;;;;;;;13.80;99.90;;;;;;5014671;28;20042;-85
2023/06/06 00:37:12;;;;;;;;;;;13.80;99.90;;;;;;5032570;28;20034;-85
2023/06/06 00:39:37;;;;;;;;;;;13.80;99.90;;;;;;5031926;28;20053;-85
2023/06/06 00:42:03;;;;;;;;;;;13.70;99.90;;;;;;5015660;28;20038;-85
2023/06/06 00:44:28;;;;;;;;;;;13.70;99.90;;;;;;5032093;28;20045;-84
2023/06/06 00:46:54;;;;;;;;;;;13.70;99.90;;;;;;5015606;28;20046;-85
2023/06/06 00:49:20;;;;;;;;;;;13.60;99.90;;;;;;5032042;28;20040;-85
2023/06/06 00:51:46;;;;;;;;;;;13.50;99.90;;;;;;5032029;28;20042;-84
2023/06/06 00:54:13;;;;;;;;;;;13.50;99.90;;;;;;5000849;28;20117;-85
2023/06/06 00:56:42;;;;;;;3.60;1.80;;;13.40;99.90;;;;;;5010611;28;20548;-84
2023/06/06 00:59:08;;;;;;;3.70;1.77;;;13.40;99.90;;;;;;5015649;28;20427;-84
2023/06/06 01:01:36;;;;;;;3.15;2.17;;;13.30;99.90;;;;;;5005208;28;20061;-84
2023/06/06 01:04:04;;;;;;;2.90;2.05;;;13.40;99.90;;;;;;4995786;28;20030;-84
2023/06/06 01:06:34;;;;;;;4.25;2.13;;;13.40;99.90;;;;;;4979466;28;20041;-84
2023/06/06 01:09:11;;;;;;;2.63;1.75;;;13.40;99.90;;;;;;5002222;28;20418;-84
2023/06/06 01:12:18;;;;;;;2.90;1.88;;;13.40;99.90;;;;;;5004833;28;20034;-84
2023/06/06 01:14:56;;;;;;;4.65;2.10;;;13.50;99.90;;;;;;5004086;28;20038;-84
2023/06/06 01:17:25;;;;;;;3.22;1.90;;;13.40;99.90;;;;;;4994200;28;20035;-84
2023/06/06 01:19:53;;;;;;;2.85;1.70;;;13.30;99.90;;;;;;5012121;28;20057;-84
2023/06/06 01:22:22;;;;;;;3.88;2.00;;;13.20;99.90;;;;;;5012856;28;20033;-83
2023/06/06 01:24:56;;;;;;;4.95;1.83;;;13.20;99.90;;;;;;5015090;28;20104;-83
2023/06/06 01:27:22;;;;;;;2.55;1.67;;;13.20;99.90;;;;;;5051206;28;20030;-83
2023/06/06 01:29:49;;;;;;;2.38;1.52;;;13.20;99.90;;;;;;5035166;28;20037;-83
2023/06/06 01:32:23;;;;;;;3.75;1.80;;;13.20;99.90;;;;;;5035387;28;20033;-83
2023/06/06 01:34:53;;;;;;;2.08;1.42;;;13.20;99.90;;;;;;5051709;28;20112;-83
2023/06/06 01:37:29;;;;;;;4.72;1.60;;;13.20;99.90;;;;;;5051756;28;20026;-83
2023/06/06 01:39:57;;;;;;;3.08;1.50;;;13.10;99.90;;;;;;5051490;28;20370;-83
2023/06/06 01:42:24;;;;;;;2.97;1.90;;;13.10;99.90;;;;;;5051763;28;20022;-83
2023/06/06 01:44:53;;;;;;;3.15;1.55;;;13.10;99.90;;;;;;5035139;28;20112;-83
2023/06/06 01:47:20;;;;;;;2.80;1.40;;;13.10;99.90;;;;;;5035119;28;20465;-84
2023/06/06 01:49:46;;;;;;;2.55;1.70;;;13.20;99.90;;;;;;5031991;28;20026;-83
2023/06/06 01:52:12;;;;;;;2.40;1.67;;;13.10;99.90;;;;;;5015435;28;20085;-83
2023/06/06 01:54:40;;;;;;;2.45;1.58;;;13.20;99.90;;;;;;5014831;28;20034;-83
2023/06/06 01:57:07;;;;;;;2.17;1.40;;;13.10;99.90;;;;;;5015517;28;20097;-83
2023/06/06 01:59:33;;;;;;;2.47;1.40;;;13.20;99.90;;;;;;5003778;28;20069;-83
2023/06/06 02:02:00;;;;;;;2.30;1.40;;;13.10;99.90;;;;;;5011296;28;20418;-83
2023/06/06 02:04:25;;;;;;;3.33;1.80;;;13.10;99.90;;;;;;4994873;28;20022;-83
2023/06/06 02:06:51;;;;;;;2.70;1.33;;;13.10;99.90;;;;;;4994766;28;20026;-84
2023/06/06 02:09:17;;;;;;;2.33;1.60;;;13.10;99.90;;;;;;5014874;28;20037;-83
2023/06/06 02:11:43;;;;;;;2.70;1.70;;;13.00;99.90;;;;;;4997773;28;20041;-83
2023/06/06 02:14:09;;;;;;;3.17;1.45;;;13.00;99.90;;;;;;5000320;28;20064;-83
2023/06/06 02:16:36;;;;;;;2.40;1.70;;;12.90;99.90;;;;;;5008367;28;20033;-84
2023/06/06 02:19:02;;;;;;;2.45;1.83;;;12.80;99.90;;;;;;5017350;28;20406;-84
2023/06/06 02:21:28;;;;;;;2.67;1.55;;;12.60;99.90;;;;;;5010873;28;20026;-83
2023/06/06 02:23:54;;;;;;;2.60;1.70;;;12.50;99.90;;;;;;5004314;28;20033;-84
2023/06/06 02:26:21;;;;;;;2.80;1.60;;;12.50;99.90;;;;;;5030701;28;20561;-84
2023/06/06 02:28:47;;;;;;;4.88;1.90;;;12.40;99.90;;;;;;5014191;28;20037;-84
2023/06/06 02:31:14;;;;;;;2.70;2.00;;;12.30;99.90;;;;;;5014075;28;20030;-84
2023/06/06 02:33:40;;;;;;;3.65;1.95;;;12.30;99.90;;;;;;4997908;28;20483;-84
2023/06/06 02:36:06;;;;;;;3.70;2.10;;;12.20;99.90;;;;;;5014250;28;20041;-84
2023/06/06 02:38:32;;;;;;;2.65;1.58;;;12.30;99.90;;;;;;5006733;28;20403;-84
2023/06/06 02:40:58;;;;;;;2.65;1.55;;;12.30;99.90;;;;;;5014029;28;20026;-84
2023/06/06 02:43:23;;;;;;;2.60;1.50;;;12.40;99.90;;;;;;5014223;28;20125;-83
2023/06/06 02:45:51;;;;;;;3.00;1.70;;;12.40;99.90;;;;;;5001726;28;20164;-84
2023/06/06 02:48:16;;;;;;;2.60;1.73;;;12.40;99.90;;;;;;4994595;28;20026;-83
2023/06/06 02:50:42;;;;;;;4.47;2.05;;;12.40;99.90;;;;;;4994489;28;20037;-83
2023/06/06 02:53:08;;;;;;;4.32;2.70;;;12.40;99.90;;;;;;4994312;28;20067;-83
2023/06/06 02:55:33;;;;;;;3.80;2.70;;;12.30;99.90;;;;;;5003809;28;20031;-84
2023/06/06 02:57:59;;;;;;;4.72;2.58;;;12.30;99.90;;;;;;5033935;28;20026;-83
2023/06/06 03:00:25;;;;;;;3.85;2.90;;;12.20;99.90;;;;;;5017203;28;20486;-83
2023/06/06 03:02:51;;;;;;;3.95;3.53;;;12.10;99.90;;;;;;5033563;28;20086;-83
2023/06/06 03:05:17;;;;;;;4.55;3.10;;;12.10;99.90;;;;;;5050121;28;20025;-84
2023/06/06 03:07:42;;;;;;;3.60;2.80;;;12.10;99.90;;;;;;5050002;28;20033;-83
2023/06/06 03:10:09;;;;;;;3.63;2.65;;;12.10;99.90;;;;;;5033433;28;20436;-84
2023/06/06 03:12:35;;;;;;;2.75;2.22;;;12.10;99.90;;;;;;5033146;28;20399;-83
2023/06/06 03:15:01;;;;;;;3.13;2.28;;;12.20;99.90;;;;;;5033529;28;20029;-83
2023/06/06 03:17:26;;;;;;;3.20;2.28;;;12.20;99.90;;;;;;5016702;28;20029;-83
2023/06/06 03:19:52;;;;;;;2.92;1.90;;;12.20;99.90;;;;;;5033129;28;20493;-83
2023/06/06 03:22:18;;;;;;;3.05;1.83;;;12.30;99.90;;;;;;5033274;28;20049;-83
2023/06/06 03:24:49;;;;;;;3.67;2.08;;;12.30;99.90;;;;;;5033296;28;20478;-83
2023/06/06 03:27:15;;;;;;;;;;;12.30;99.90;;;;;;5015389;28;20086;-84
2023/06/06 03:29:40;;;;;;;2.85;2.10;;;12.30;99.90;;;;;;4999949;28;20294;-84
2023/06/06 03:32:07;;;;;;;4.05;2.20;;;12.30;99.90;;;;;;5013163;28;20482;-83
2023/06/06 03:34:33;;;;;;;3.60;2.40;;;12.20;99.90;;;;;;5013318;28;20092;-83
2023/06/06 03:36:59;;;;;;;3.47;2.30;;;12.10;99.90;;;;;;5013189;28;20034;-83
2023/06/06 03:39:25;;;;;;;3.30;2.13;;;12.10;99.90;;;;;;5012926;28;20453;-83
2023/06/06 03:41:51;;;;;;;5.38;2.35;;;12.10;99.90;;;;;;5014480;28;20109;-83
2023/06/06 03:44:17;;;;;;;3.53;2.78;;;12.10;99.90;;;;;;4997394;28;20470;-83
2023/06/06 03:46:43;;;;;;;4.35;3.15;;;12.00;99.90;;;;;;4997941;28;20098;-83
2023/06/06 03:49:08;;;;;;;3.85;2.90;;;12.00;99.90;;;;;;4998734;28;20038;-83
2023/06/06 03:51:35;;;;;;;5.80;3.90;;;11.90;99.90;;;;;;4998347;28;20062;-83
2023/06/06 03:54:01;;;;;;;4.63;3.30;;;11.90;99.90;;;;;;4998419;28;20427;-83
2023/06/06 03:56:27;;;;;;;3.40;2.55;;;11.80;99.90;;;;;;5010855;28;20034;-82
2023/06/06 03:58:53;;;;;;;6.03;2.58;;;11.90;99.90;;;;;;5004092;28;20121;-83
2023/06/06 04:01:20;;;;;;;6.10;2.95;;;11.90;99.90;;;;;;5009994;28;20101;-83
2023/06/06 04:03:46;;;;;;;3.40;2.35;;;12.00;99.90;;;;;;4988037;28;20027;-83
2023/06/06 04:06:13;;;;;;;3.97;2.50;;;12.00;99.90;;;;;;5025494;28;20123;-83
2023/06/06 04:08:40;;;;;;;4.00;2.47;;;12.10;99.90;;;;;;5016110;28;20040;-83
2023/06/06 04:11:06;;;;;;;2.90;2.20;;;12.10;99.90;;;;;;5004212;28;20027;-82
2023/06/06 04:13:31;;;;;;;3.97;2.63;;;12.20;99.90;;;;;;5019794;28;20084;-83
2023/06/06 04:15:57;;;;;;;4.82;2.17;;;12.20;99.90;;;;;;5008900;28;20033;-83
2023/06/06 04:18:23;;;;;;;3.45;2.25;;;12.20;99.90;;;;;;5026026;28;20041;-83
2023/06/06 04:20:48;;;;;;;3.83;2.70;;;12.30;99.90;;;;;;5006879;28;20060;-83
2023/06/06 04:23:14;;;;;;;3.45;2.35;;;12.30;99.90;;;;;;5017330;28;20030;-83
2023/06/06 04:25:40;;;;;;;4.60;2.60;;;12.40;99.90;;;;;;5000695;28;20391;-83
2023/06/06 04:28:07;;;;;;;3.33;2.50;;;12.40;99.90;;;;;;4965401;28;20045;-82
2023/06/06 04:30:32;;;;;;;3.58;2.38;;;12.40;99.90;;;;;;4981297;28;20026;-83
2023/06/06 04:32:58;;;;;;;2.67;2.03;;;12.50;99.90;;;;;;4991129;28;20039;-83
2023/06/06 04:35:24;;;;;;;4.80;2.42;;;12.50;99.90;;;;;;5014342;28;20484;-82
2023/06/06 04:37:53;;;;;;;3.85;2.97;;;12.50;99.90;;;;;;5013772;28;20030;-83
2023/06/06 04:40:21;;;;;;;4.43;3.13;;;12.50;99.90;;;;;;4999003;28;20093;-82
2023/06/06 04:42:47;;;;;;;4.45;2.88;;;12.50;99.90;;;;;;4999200;28;20030;-83
2023/06/06 04:45:15;;;;;;;7.30;3.10;;;12.50;99.90;;;;;;5013913;28;20034;-82
2023/06/06 04:47:44;;;;;;;4.57;2.85;;;12.60;99.90;;;;;;5013056;28;20036;-83
2023/06/06 04:50:11;;;;;;;5.40;2.90;;;12.60;99.90;;;;;;5019561;28;20069;-82
2023/06/06 04:52:37;;;;;;;6.15;2.63;;;12.60;99.90;;;;;;5013475;28;20019;-82
2023/06/06 04:55:03;;;;;;;4.00;2.53;;;12.70;99.90;;;;;;5014455;28;20478;-83
2023/06/06 04:57:29;;;;;;;3.70;2.53;;;12.80;99.90;;;;;;5000905;28;20082;-83
2023/06/06 04:59:56;;;;;;;4.85;2.67;;;12.80;99.90;;;;;;5018208;28;20117;-82
2023/06/06 05:02:28;;;;;;;3.38;2.28;;;12.90;99.90;;;;;;5017402;28;20026;-83
2023/06/06 05:04:55;;;;;;;;;;;12.90;99.90;;;;;;5018449;28;20022;-82
2023/06/06 05:07:23;;;;;;;4.35;2.80;;;13.00;99.90;;;;;;5018310;28;19906;-83
2023/06/06 05:09:49;;;;;;;6.68;2.80;;;13.00;99.90;;;;;;5032645;28;20026;-83
2023/06/06 05:12:14;;;;;;;4.65;2.53;;;13.10;99.90;;;;;;5016361;28;20165;-83
2023/06/06 05:14:40;;;;;;;4.22;2.47;;;13.10;99.90;;;;;;5000448;28;20116;-82
2023/06/06 05:17:06;;;;;;;5.18;2.95;;;13.20;99.90;;;;;;5017547;28;20022;-83
2023/06/06 05:19:32;;;;;;;4.72;3.13;;;13.30;99.90;;;;;;4983599;28;20124;-82
2023/06/06 05:21:57;;;;;;;5.65;3.80;;;13.30;99.90;;;;;;5016245;28;20390;-82
2023/06/06 05:24:23;;;;;;;7.28;4.97;;;13.30;99.90;;;;;;5016352;28;20139;-82
2023/06/06 05:26:49;;;;;;;6.80;4.00;;;13.30;99.90;;;;;;4999494;28;20101;-83
2023/06/06 05:29:15;;;;;;;5.63;3.88;;;13.40;99.90;;;;;;5016835;28;20069;-82
2023/06/06 05:31:40;;;;;;;5.70;4.15;;;13.40;99.90;;;;;;5014753;28;20441;-82
2023/06/06 05:34:06;;;;;;;6.35;4.25;;;13.50;99.90;;;;;;5032664;28;20037;-83
2023/06/06 05:36:31;;;;;;;6.15;3.80;;;13.60;99.90;;;;;;5016432;28;20452;-83
2023/06/06 05:38:57;;;;;;;6.38;4.00;;;13.60;99.90;;;;;;5015418;28;20030;-82
2023/06/06 05:41:23;;;;;;;6.13;3.95;;;13.70;99.90;;;;;;4999886;28;20124;-82
2023/06/06 05:43:50;;;;;;;5.32;3.97;;;13.80;99.90;;;;;;5015563;28;20121;-83
2023/06/06 05:46:17;;;;;;;5.50;4.28;;;13.90;99.90;;;;;;5016068;28;20022;-83
2023/06/06 05:48:43;;;;;;;5.90;4.10;;;14.00;99.90;;;;;;5032374;28;20030;-83
2023/06/06 05:51:09;;;;;;;7.53;4.43;;;14.10;99.90;;;;;;5015813;28;20037;-83
2023/06/06 05:53:39;;;;;;;6.35;3.72;;;14.20;99.90;;;;;;5015949;28;20103;-82
2023/06/06 05:56:05;;;;;;;5.32;4.03;;;14.30;99.90;;;;;;5026435;28;20030;-83
2023/06/06 05:58:31;;;;;;;6.03;4.00;;;14.40;99.90;;;;;;4999123;28;20056;-82
2023/06/06 06:00:57;;;;;;;6.97;3.90;;;14.50;99.90;;;;;;4999283;28;20390;-83
2023/06/06 06:03:24;;;;;;;5.07;3.72;;;14.60;99.90;;;;;;4998672;28;20483;-82
2023/06/06 06:05:50;;;;;;;5.65;3.70;;;14.60;99.90;;;;;;4999708;28;20164;-83
2023/06/06 06:08:17;;;;;;;5.18;3.45;;;14.80;99.90;;;;;;4999336;28;20498;-83
2023/06/06 06:10:43;;;;;;;4.43;3.08;;;14.80;99.90;;;;;;5015517;28;20022;-82
2023/06/06 06:13:09;;;;;;;4.60;3.10;;;14.80;99.90;;;;;;5031879;28;20030;-82
2023/06/06 06:15:35;;;;;;;4.72;3.35;;;14.90;99.90;;;;;;4999101;28;20482;-82
2023/06/06 06:18:03;;;;;;;6.63;3.95;;;15.00;99.90;;;;;;4999028;28;20509;-82
2023/06/06 06:20:29;;;;;;;7.20;5.05;;;15.00;99.90;;;;;;5017290;28;20025;-82
2023/06/06 06:22:55;;;;;;;5.50;3.83;;;15.10;99.90;;;;;;5031873;28;20029;-83
2023/06/06 06:25:20;;;;;;;7.82;4.72;;;15.20;99.90;;;;;;5015179;28;20545;-83
2023/06/06 06:27:47;;;;;;;6.75;3.58;;;15.30;99.90;;;;;;5015297;28;20441;-82
2023/06/06 06:30:14;;;;;;;5.50;4.10;;;15.50;99.90;;;;;;5031509;28;20072;-83
2023/06/06 06:32:42;;;;;;;5.45;4.60;;;15.60;99.90;;;;;;5015287;28;20474;-82
2023/06/06 06:35:09;;;;;;;5.85;4.15;;;15.60;99.90;;;;;;5016595;28;20069;-82
2023/06/06 06:37:39;;;;;;;5.60;4.40;;;15.70;99.90;;;;;;5015073;28;20101;-83
2023/06/06 06:40:12;;;;;;;6.30;4.32;;;15.80;99.90;;;;;;5015469;28;20049;-83
2023/06/06 06:42:43;;;;;;;7.05;4.47;;;15.90;99.90;;;;;;5015222;28;20040;-83
2023/06/06 06:45:14;;;;;;;7.88;4.47;;;15.90;99.90;;;;;;5031399;28;20026;-83
2023/06/06 06:47:41;;;;;;;6.93;4.75;;;15.90;99.90;;;;;;5031250;28;20044;-83
2023/06/06 06:50:08;;;;;;;5.30;4.32;;;16.00;99.90;;;;;;5015201;28;20128;-82
2023/06/06 06:52:35;;;;;;;6.47;4.05;;;16.00;99.90;;;;;;5031483;28;20107;-82
2023/06/06 06:55:02;;;;;;;4.97;3.47;;;16.10;99.90;;;;;;5015078;28;20041;-82
2023/06/06 06:57:28;;;;;;;6.05;3.88;;;16.10;99.90;;;;;;4998707;28;20398;-84
2023/06/06 07:00:03;;;;;;;5.30;4.03;;;16.20;99.90;;;;;;4998934;28;20046;-82
2023/06/06 07:02:28;;;;;;;5.57;3.92;;;16.20;99.90;;;;;;5014683;28;20022;-82
2023/06/06 07:04:57;;;;;;;4.78;3.47;;;16.30;99.90;;;;;;4982793;28;20036;-82
2023/06/06 07:07:23;;;;;;;4.40;3.47;;;16.40;99.90;;;;;;5016210;28;20020;-82
2023/06/06 07:09:49;;;;;;;6.82;4.43;;;16.50;99.90;;;;;;5031699;28;20038;-82
2023/06/06 07:12:15;;;;;;;5.40;4.20;;;16.60;99.90;;;;;;5014919;28;20026;-82
2023/06/06 07:14:41;;;;;;;4.97;3.78;;;16.70;99.90;;;;;;5015260;28;20034;-82
2023/06/06 07:17:07;;;;;;;6.00;4.18;;;16.90;99.90;;;;;;4998901;28;20057;-82
2023/06/06 07:19:33;;;;;;;6.25;4.25;;;17.00;99.90;;;;;;4998634;28;20056;-82
2023/06/06 07:22:00;;;;;;;8.20;3.67;;;17.10;99.90;;;;;;4999031;28;20033;-82
2023/06/06 07:24:26;;;;;;;5.38;3.47;;;17.30;99.90;;;;;;4998845;28;20030;-82
2023/06/06 07:26:52;;;;;;;6.43;3.70;;;17.30;99.90;;;;;;5015863;28;20022;-83
2023/06/06 07:29:18;;;;;;;5.30;4.03;;;17.50;99.90;;;;;;5031520;28;20128;-82
2023/06/06 07:31:44;;;;;;;5.88;4.35;;;17.60;99.90;;;;;;5016543;28;20030;-82
2023/06/06 07:34:10;;;;;;;5.65;3.60;;;17.70;99.90;;;;;;4998919;28;20033;-83
2023/06/06 07:36:36;;;;;;;5.50;3.70;;;17.70;99.90;;;;;;4998357;28;20068;-82
2023/06/06 07:39:02;;;;;;;4.75;3.63;;;17.80;99.90;;;;;;5015060;28;20044;-82
2023/06/06 07:41:31;;;;;;;4.55;3.00;;;17.80;99.90;;;;;;5015757;28;20026;-83
2023/06/06 07:43:57;;;;;;;5.38;2.75;;;18.00;99.90;;;;;;5014660;28;20026;-82
2023/06/06 07:46:24;;;;;;;5.10;2.78;;;18.00;99.90;;;;;;5016764;28;20109;-82
2023/06/06 07:48:50;;;;;;;5.70;2.85;;;18.10;99.90;;;;;;5015582;28;20050;-82
2023/06/06 07:51:16;;;;;;;3.95;3.00;;;18.20;99.90;;;;;;5031849;28;20034;-82
2023/06/06 07:53:44;;;;;;;3.85;2.78;;;18.20;99.90;;;;;;5016693;28;20021;-82
2023/06/06 07:56:14;;;;;;;4.78;3.10;;;18.30;99.90;;;;;;5015429;28;20033;-83
2023/06/06 07:58:51;;;;;;;4.17;3.23;;;18.30;99.90;;;;;;5031953;28;20410;-82
2023/06/06 08:01:19;;;;;;;3.70;2.55;;;18.40;99.90;;;;;;5016766;28;20271;-82
2023/06/06 08:03:54;;;;;;;3.60;2.67;;;18.50;99.90;;;;;;5032169;28;20026;-83
2023/06/06 08:06:20;;;;;;;4.38;2.38;;;18.60;99.90;;;;;;5016721;28;20117;-82
2023/06/06 08:08:48;;;;;;;3.55;2.88;;;18.70;99.90;;;;;;4999425;28;20057;-82
2023/06/06 08:11:14;;;;;;;4.32;3.05;;;18.80;99.90;;;;;;5016685;28;20101;-82
2023/06/06 08:13:40;;;;;;;4.60;2.60;;;18.80;99.90;;;;;;5017141;28;20042;-82
2023/06/06 08:16:05;;;;;;;5.63;3.10;;;18.80;99.90;;;;;;5015729;28;20030;-82
2023/06/06 08:18:31;;;;;;;4.15;2.75;;;18.70;99.90;;;;;;5016760;28;20030;-83
2023/06/06 08:20:57;;;;;;;3.78;2.70;;;18.70;99.90;;;;;;5031932;28;20038;-83
2023/06/06 08:23:25;;;;;;;4.45;2.75;;;18.70;99.90;;;;;;5015797;28;20030;-83
2023/06/06 08:25:57;;;;;;;4.00;2.80;;;18.90;99.90;;;;;;5017279;28;20214;-83
2023/06/06 08:28:23;;;;;;;5.88;2.60;;;19.10;99.90;;;;;;5003986;28;20041;-82
2023/06/06 08:30:51;;;;;;;4.97;3.05;;;19.20;99.90;;;;;;5003588;28;20036;-82
2023/06/06 08:33:17;;;;;;;3.60;2.80;;;19.30;99.90;;;;;;5019298;28;20552;-82
2023/06/06 08:35:43;;;;;;;3.75;2.92;;;19.30;99.90;;;;;;5019730;28;20119;-82
2023/06/06 08:38:09;;;;;;;4.35;3.10;;;19.30;99.90;;;;;;5021402;28;20034;-82
2023/06/06 08:40:35;;;;;;;6.05;3.47;;;19.30;99.90;;;;;;5018988;28;20022;-82
2023/06/06 08:43:01;;;;;;;5.95;3.50;;;19.40;99.90;;;;;;5002244;28;20033;-82
2023/06/06 08:45:27;;;;;;;4.68;3.47;;;19.60;99.90;;;;;;5019223;28;20514;-82
2023/06/06 08:47:54;;;;;;;6.00;2.97;;;19.70;99.90;;;;;;5002566;28;20049;-82
2023/06/06 08:50:23;;;;;;;4.85;3.20;;;19.90;99.90;;;;;;5002857;28;20022;-82
2023/06/06 08:52:50;;;;;;;3.88;3.20;;;20.00;99.90;;;;;;5002704;28;20069;-83
2023/06/06 08:55:16;;;;;;;3.90;3.00;;;20.10;99.90;;;;;;5018152;28;20022;-82
2023/06/06 08:57:43;;;;;;;6.10;3.03;;;20.20;99.90;;;;;;5001432;28;20036;-82
2023/06/06 09:00:20;;;;;;;3.72;2.92;;;20.10;99.90;;;;;;5019148;28;20032;-82
2023/06/06 09:02:47;;;;;;;3.95;2.95;;;20.20;99.90;;;;;;5018784;28;20018;-82
2023/06/06 09:05:16;;;;;;;7.78;3.00;;;20.20;99.90;;;;;;5019030;28;20462;-82
2023/06/06 09:07:42;;;;;;;4.38;3.10;;;20.30;99.90;;;;;;5017747;28;20467;-82
2023/06/06 09:10:09;;;;;;;5.68;3.40;;;20.30;99.90;;;;;;5018845;28;20085;-82
2023/06/06 09:12:46;;;;;;;5.07;3.38;;;20.40;99.90;;;;;;5018149;28;20398;-82
2023/06/06 09:15:12;;;;;;;;;;;20.50;99.90;;;;;;5018191;28;20089;-82
2023/06/06 09:17:38;;;;;;;;;;;20.60;99.90;;;;;;5034527;28;20410;-82
2023/06/06 09:20:12;;;;;;;;;;;20.70;99.90;;;;;;5034442;28;20049;-82
2023/06/06 09:22:38;;;;;;;;;;;20.70;99.90;;;;;;5034239;28;20041;-82
2023/06/06 09:25:04;;;;;;;;;;;20.80;99.90;;;;;;5019650;28;20049;-82
2023/06/06 09:27:30;;;;;;;;;;;20.90;99.90;;;;;;5053499;28;20051;-82
2023/06/06 09:29:56;;;;;;;;;;;21.00;99.90;;;;;;5038579;28;20401;-82
2023/06/06 09:32:29;;;;;;;;;;;21.10;99.90;;;;;;5037788;28;20053;-82
2023/06/06 09:34:54;;;;;;;;;;;21.10;99.60;;;;;;5037562;28;19959;-81
2023/06/06 09:37:23;;;;;;;;;;;21.10;98.50;;;;;;5035610;28;19909;-83
2023/06/06 09:40:09;;;;;;;;;;;21.00;98.20;;;;;;5036470;28;19917;-82
2023/06/06 09:42:34;;;;;;;;;;;20.90;97.60;;;;;;5052566;28;20349;-83
2023/06/06 09:45:00;;;;;;;;;;;21.00;98.50;;;;;;5052338;28;19980;-82
2023/06/06 09:47:25;;;;;;;;;;;21.00;98.30;;;;;;5053059;28;20007;-82
2023/06/06 09:49:54;;;;;;;;;;;21.10;97.30;;;;;;5036188;28;19916;-82
2023/06/06 09:52:20;;;;;;;;;;;21.40;98.30;;;;;;5052512;28;20015;-82
2023/06/06 09:54:46;;;;;;;;;;;21.60;98.20;;;;;;5053175;28;19909;-82
2023/06/06 09:57:14;;;;;;;;;;;21.90;97.40;;;;;;5035481;28;19913;-82
2023/06/06 09:59:40;;;;;;;;;;;22.10;95.30;;;;;;5018454;28;20000;-82
2023/06/06 10:02:08;;;;;;;;;;;22.20;95.80;;;;;;5033682;28;19921;-82
2023/06/06 10:04:35;;;;;;;;;;;22.30;96.60;;;;;;5033534;28;19973;-82
2023/06/06 10:07:02;;;;;;;;;;;22.40;94.00;;;;;;5033553;28;19906;-82
2023/06/06 10:09:28;;;;;;;;;;;22.40;94.30;;;;;;5033670;28;19928;-82
2023/06/06 10:11:54;;;;;;;;;;;22.60;97.10;;;;;;5033001;28;19913;-81
2023/06/06 10:14:21;;;;;;;;;;;22.70;87.70;;;;;;5033103;28;20277;-82
2023/06/06 10:16:47;;;;;;;;;;;22.90;88.90;;;;;;5017190;28;19905;-81
2023/06/06 10:19:13;;;;;;;;;;;23.00;88.70;;;;;;5032845;28;19920;-81
2023/06/06 10:21:39;;;;;;;;;;;23.10;82.70;;;;;;5032512;28;19909;-82
2023/06/06 10:24:05;;;;;;;;;;;23.20;86.40;;;;;;5032408;28;19909;-81
2023/06/06 10:26:49;;;;;;;;;;;23.40;84.30;;;;;;5029583;28;19909;-83
2023/06/06 10:29:19;;;;;;;;;;;23.50;87.90;;;;;;5052443;28;19913;-81
2023/06/06 10:31:53;;;;;;;;;;;23.60;81.70;;;;;;5036610;28;19956;-81
2023/06/06 10:34:30;;;;;;;;;;;23.70;84.10;;;;;;5052080;28;19905;-82
2023/06/06 10:36:56;;;;;;;;;;;23.70;81.20;;;;;;5036617;28;19905;-81
2023/06/06 10:39:23;;;;;;;;;;;23.80;79.70;;;;;;5023961;28;20018;-81
2023/06/06 10:41:52;;;;;;;;;;;23.80;78.50;;;;;;5015420;28;19921;-82
2023/06/06 10:44:18;;;;;;;;;;;23.90;78.20;;;;;;5005272;28;19953;-83
2023/06/06 10:46:44;;;;;;;;;;;23.90;79.30;;;;;;4995744;28;19968;-82
2023/06/06 10:49:10;;;;;;;;;;;24.00;81.90;;;;;;4995671;28;19911;-82
2023/06/06 10:51:39;;;;;;;;;;;24.10;78.70;;;;;;4998531;28;19909;-82
2023/06/06 10:54:18;;;;;;;;;;;24.20;79.50;;;;;;5013296;28;19905;-82
2023/06/06 10:56:44;;;;;;;;;;;24.30;76.00;;;;;;5026964;28;20362;-81
2023/06/06 10:59:10;;;;;;;;;;;24.20;75.10;;;;;;5000046;28;19913;-81
2023/06/06 11:01:36;;;;;;;;;;;24.20;74.40;;;;;;5014472;28;19917;-82
2023/06/06 11:04:15;;;;;;;;;;;24.30;75.30;;;;;;4997269;28;19914;-82
2023/06/06 11:06:42;;;;;;;;;;;24.40;76.40;;;;;;5013535;28;19912;-81
2023/06/06 11:09:16;;;;;;;;;;;24.60;72.00;;;;;;4996428;28;20389;-81
2023/06/06 11:11:41;;;;;;;;;;;24.60;70.10;;;;;;5011972;28;20124;-81
2023/06/06 11:14:07;;;;;;;;;;;24.50;67.90;;;;;;4996005;28;20004;-81
2023/06/06 11:16:48;;;;;;;;;;;24.30;78.40;;;;;;4997385;28;20000;-81
2023/06/06 11:19:15;;;;;;;;;;;24.30;78.10;;;;;;4998462;28;19916;-82
2023/06/06 11:21:42;;;;;;;;;;;24.30;75.20;;;;;;4998515;28;19953;-81
2023/06/06 11:24:08;;;;;;;;;;;24.10;77.60;;;;;;5011094;28;19910;-81
2023/06/06 11:26:34;;;;;;;;;;;23.90;80.00;;;;;;5038056;28;19913;-81
2023/06/06 11:29:00;;;;;;;;;;;23.60;79.00;;;;;;5038822;28;19921;-81
2023/06/06 11:31:26;;;;;;;;;;;23.30;80.00;;;;;;5054754;28;19912;-81
2023/06/06 11:34:05;;;;;;;;;;;23.10;78.70;;;;;;5046528;28;19920;-81
2023/06/06 11:36:33;;;;;;;;;;;22.80;81.50;;;;;;5034896;28;20424;-81
2023/06/06 11:38:59;;;;;;;;;;;22.60;81.70;;;;;;5002935;28;19913;-82
2023/06/06 11:41:25;;;;;;;;;;;22.60;82.70;;;;;;5020005;28;19936;-82
2023/06/06 11:43:51;;;;;;;;;;;22.60;84.00;;;;;;5036271;28;19905;-81
2023/06/06 11:46:19;;;;;;;;;;;22.70;84.80;;;;;;5020757;28;19928;-81
2023/06/06 11:48:45;;;;;;;;;;;22.80;84.40;;;;;;5021079;28;20393;-81
2023/06/06 11:51:11;;;;;;;;;;;23.00;87.30;;;;;;5018688;28;19909;-80
2023/06/06 11:53:37;;;;;;;;;;;23.10;86.60;;;;;;5026707;28;19928;-82
2023/06/06 11:56:03;;;;;;;;;;;23.20;84.50;;;;;;5028345;28;19905;-82
2023/06/06 11:58:29;;;;;;;;;;;23.00;84.30;;;;;;5034826;28;19913;-82
2023/06/06 12:00:57;;;;;;;;;;;22.70;84.30;;;;;;5051852;28;20259;-82
2023/06/06 12:03:23;;;;;;;;;;;22.80;86.60;;;;;;5055464;28;19996;-83
2023/06/06 12:05:59;;;;;;;;;;;22.90;86.70;;;;;;5039218;28;19940;-82
2023/06/06 12:08:24;;;;;;;;;;;23.10;86.40;;;;;;5037698;28;19913;-82
2023/06/06 12:10:50;;;;;;;;;;;23.20;85.50;;;;;;5037288;28;19966;-82
2023/06/06 12:13:31;;;;;;;;;;;23.20;82.70;;;;;;5037234;28;19905;-82
2023/06/06 12:15:57;;;;;;;;;;;23.10;85.80;;;;;;5038642;28;19913;-82
2023/06/06 12:18:23;;;;;;;;;;;23.10;84.80;;;;;;5053999;28;19912;-82
2023/06/06 12:20:48;;;;;;;;;;;23.10;82.80;;;;;;5038717;28;19909;-82
2023/06/06 12:23:30;;;;;;;;;;;23.00;83.40;;;;;;5026275;28;20352;-82
2023/06/06 12:25:57;;;;;;;;;;;22.80;82.20;;;;;;5042214;28;19905;-82
2023/06/06 12:28:23;;;;;;;;;;;22.50;84.80;;;;;;5039849;28;20003;-82
2023/06/06 12:30:51;;;;;;;;;;;22.30;85.40;;;;;;5019498;28;19909;-82
2023/06/06 12:33:21;;;;;;;;;;;22.20;85.40;;;;;;5018302;28;19995;-82
2023/06/06 12:35:48;;;;;;;;;;;22.00;85.30;;;;;;5035350;28;19912;-84
2023/06/06 12:38:17;;;;;;;;;;;21.80;84.20;;;;;;5021761;28;19913;-84
2023/06/06 12:40:52;;;;;;;;;;;21.60;86.20;;;;;;5038230;28;19906;-83
2023/06/06 12:43:17;;;;;;;;;;;21.50;86.20;;;;;;5024105;28;19905;-83
2023/06/06 12:45:43;;;;;;;;;;;21.50;84.70;;;;;;5022477;28;19917;-83
2023/06/06 12:48:08;;;;;;;;;;;21.50;85.90;;;;;;5016646;28;19920;-83
2023/06/06 12:50:34;;;;;;;;;;;21.40;85.50;;;;;;5018889;28;19949;-83
2023/06/06 12:53:02;;;;;;;;;;;21.40;85.00;;;;;;5024359;28;20396;-82
2023/06/06 12:55:28;;;;;;;;;;;21.40;86.40;;;;;;5028412;28;20000;-83
2023/06/06 12:57:54;;;;;;;;;;;21.40;85.00;;;;;;5048078;28;19994;-83
2023/06/06 13:00:20;;;;;;;;;;;21.50;84.90;;;;;;5022902;28;19919;-83
2023/06/06 13:02:46;;;;;;;;;;;21.50;86.80;;;;;;5023649;28;19905;-82
2023/06/06 13:05:12;;;;;;;;;;;21.50;85.70;;;;;;5037945;28;20397;-82
2023/06/06 13:07:38;;;;;;;;;;;21.50;86.00;;;;;;5037631;28;19957;-83
2023/06/06 13:10:06;;;;;;;;;;;21.80;87.10;;;;;;5017964;28;19909;-82
2023/06/06 13:12:32;;;;;;;;;;;22.10;83.20;;;;;;5015905;28;19928;-81
2023/06/06 13:14:59;;;;;;;;;;;22.30;83.30;;;;;;5032698;28;19955;-81
2023/06/06 13:17:24;;;;;;;;;;;22.30;81.80;;;;;;5032501;28;19906;-81
2023/06/06 13:19:51;;;;;;;;;;;22.40;82.30;;;;;;5016410;28;19924;-81